sensor_id;sensor_type;location;lat;lon;timestamp;temperature;humidity
14709;DHT22;7445;50.774;4.944;2022-10-16T07:18:32;12.90;99.90
14709;DHT22;7445;50.774;4.944;2022-10-16T07:21:10;13.10;99.90
14709;DHT22;7445;50.774;4.944;2022-10-16T07:23:36;13.10;99.90
14709;DHT22;7445;50.774;4.944;2022-10-16T07:26:04;13.20;99.90
14709;DHT22;7445;50.774;4.944;2022-10-16T07:28:30;13.30;99.90
14709;DHT22;7445;50.774;4.944;2022-10-16T07:31:00;13.40;99.90
14709;DHT22;7445;50.774;4.944;2022-10-16T07:33:26;13.50;99.90
14709;DHT22;7445;50.774;4.944;2022-10-16T07:35:53;13.60;99.90
14709;DHT22;7445;50.774;4.944;2022-10-16T07:38:19;13.70;99.90
14709;DHT22;7445;50.774;4.944;2022-10-16T07:40:45;13.80;99.90
14709;DHT22;7445;50.774;4.944;2022-10-16T07:43:11;13.90;99.90
14709;DHT22;7445;50.774;4.944;2022-10-16T07:45:37;13.90;99.90
14709;DHT22;7445;50.774;4.944;2022-10-16T07:48:11;14.00;99.90
14709;DHT22;7445;50.774;4.944;2022-10-16T07:50:37;14.10;99.90
14709;DHT22;7445;50.774;4.944;2022-10-16T07:53:04;14.20;99.90
14709;DHT22;7445;50.774;4.944;2022-10-16T07:55:29;14.20;99.90
14709;DHT22;7445;50.774;4.944;2022-10-16T07:57:55;14.40;99.90
14709;DHT22;7445;50.774;4.944;2022-10-16T08:00:20;14.50;99.90
14709;DHT22;7445;50.774;4.944;2022-10-16T08:02:46;14.60;99.90
14709;DHT22;7445;50.774;4.944;2022-10-16T08:05:12;14.70;99.90
14709;DHT22;7445;50.774;4.944;2022-10-16T08:07:37;14.80;99.90
14709;DHT22;7445;50.774;4.944;2022-10-16T08:10:03;14.90;99.90
14709;DHT22;7445;50.774;4.944;2022-10-16T08:12:29;14.90;99.90
14709;DHT22;7445;50.774;4.944;2022-10-16T08:14:57;15.00;99.90
14709;DHT22;7445;50.774;4.944;2022-10-16T08:17:28;15.00;99.90
14709;DHT22;7445;50.774;4.944;2022-10-16T08:19:56;15.10;99.90
14709;DHT22;7445;50.774;4.944;2022-10-16T08:22:27;15.10;99.90
14709;DHT22;7445;50.774;4.944;2022-10-16T08:24:53;15.20;99.90
14709;DHT22;7445;50.774;4.944;2022-10-16T08:27:19;15.30;99.90
14709;DHT22;7445;50.774;4.944;2022-10-16T08:29:59;15.30;99.90
14709;DHT22;7445;50.774;4.944;2022-10-16T08:32:28;15.30;99.90
14709;DHT22;7445;50.774;4.944;2022-10-16T08:35:25;15.40;99.90
14709;DHT22;7445;50.774;4.944;2022-10-16T08:38:09;15.50;99.90
14709;DHT22;7445;50.774;4.944;2022-10-16T08:40:36;15.60;99.90
14709;DHT22;7445;50.774;4.944;2022-10-16T08:51:18;15.80;99.90
14709;DHT22;7445;50.774;4.944;2022-10-16T08:54:01;15.80;99.90
14709;DHT22;7445;50.774;4.944;2022-10-16T08:56:28;15.90;99.90
14709;DHT22;7445;50.774;4.944;2022-10-16T08:59:01;16.00;99.90
14709;DHT22;7445;50.774;4.944;2022-10-16T09:01:51;16.10;99.90
14709;DHT22;7445;50.774;4.944;2022-10-16T09:04:58;16.10;99.90
14709;DHT22;7445;50.774;4.944;2022-10-16T09:07:28;16.20;99.90
14709;DHT22;7445;50.774;4.944;2022-10-16T09:12:59;16.40;99.90
14709;DHT22;7445;50.774;4.944;2022-10-16T09:15:51;16.50;99.90
14709;DHT22;7445;50.774;4.944;2022-10-16T09:21:38;16.60;99.90
14709;DHT22;7445;50.774;4.944;2022-10-16T09:24:25;16.70;99.90
14709;DHT22;7445;50.774;4.944;2022-10-16T09:27:14;16.70;99.90
14709;DHT22;7445;50.774;4.944;2022-10-16T09:30:01;16.80;99.90
14709;DHT22;7445;50.774;4.944;2022-10-16T09:32:39;16.90;99.90
14709;DHT22;7445;50.774;4.944;2022-10-16T09:35:45;16.90;99.90
14709;DHT22;7445;50.774;4.944;2022-10-16T09:38:32;17.00;99.90
14709;DHT22;7445;50.774;4.944;2022-10-16T09:41:02;17.10;99.90
14709;DHT22;7445;50.774;4.944;2022-10-16T09:44:27;17.10;99.90
14709;DHT22;7445;50.774;4.944;2022-10-16T09:47:23;17.20;99.90
14709;DHT22;7445;50.774;4.944;2022-10-16T09:49:55;17.30;99.90
14709;DHT22;7445;50.774;4.944;2022-10-16T09:52:23;17.40;99.90
14709;DHT22;7445;50.774;4.944;2022-10-16T09:54:56;17.50;99.90
14709;DHT22;7445;50.774;4.944;2022-10-16T09:57:23;17.50;99.90
14709;DHT22;7445;50.774;4.944;2022-10-16T10:00:16;17.50;99.90
14709;DHT22;7445;50.774;4.944;2022-10-16T10:03:43;17.50;99.90
14709;DHT22;7445;50.774;4.944;2022-10-16T10:09:42;17.60;99.90
14709;DHT22;7445;50.774;4.944;2022-10-16T10:12:29;17.70;99.90
14709;DHT22;7445;50.774;4.944;2022-10-16T10:15:13;17.90;99.90
14709;DHT22;7445;50.774;4.944;2022-10-16T10:18:18;18.00;99.90
14709;DHT22;7445;50.774;4.944;2022-10-16T10:21:04;18.10;99.90
14709;DHT22;7445;50.774;4.944;2022-10-16T10:23:56;18.20;99.90
14709;DHT22;7445;50.774;4.944;2022-10-16T10:27:16;18.10;99.90
14709;DHT22;7445;50.774;4.944;2022-10-16T10:30:26;17.80;99.90
14709;DHT22;7445;50.774;4.944;2022-10-16T10:51:07;18.20;99.90
14709;DHT22;7445;50.774;4.944;2022-10-16T10:54:32;18.20;99.90
14709;DHT22;7445;50.774;4.944;2022-10-16T10:59:49;18.30;99.90
14709;DHT22;7445;50.774;4.944;2022-10-16T11:02:48;18.40;99.90
14709;DHT22;7445;50.774;4.944;2022-10-16T11:05:52;18.70;99.90
14709;DHT22;7445;50.774;4.944;2022-10-16T11:09:17;18.60;99.90
14709;DHT22;7445;50.774;4.944;2022-10-16T11:11:49;18.70;99.90
14709;DHT22;7445;50.774;4.944;2022-10-16T11:14:40;18.50;99.90
14709;DHT22;7445;50.774;4.944;2022-10-16T11:20:12;18.40;99.90
14709;DHT22;7445;50.774;4.944;2022-10-16T11:22:44;18.70;99.90
14709;DHT22;7445;50.774;4.944;2022-10-16T11:25:32;18.70;99.90
14709;DHT22;7445;50.774;4.944;2022-10-16T11:28:25;18.70;99.90
14709;DHT22;7445;50.774;4.944;2022-10-16T11:31:34;18.80;99.90
14709;DHT22;7445;50.774;4.944;2022-10-16T11:34:43;18.80;99.90
14709;DHT22;7445;50.774;4.944;2022-10-16T11:37:40;18.80;99.90
14709;DHT22;7445;50.774;4.944;2022-10-16T11:40:37;19.10;99.90
14709;DHT22;7445;50.774;4.944;2022-10-16T11:43:35;19.00;99.90
14709;DHT22;7445;50.774;4.944;2022-10-16T11:46:49;18.90;99.90
14709;DHT22;7445;50.774;4.944;2022-10-16T11:49:37;18.80;99.90
14709;DHT22;7445;50.774;4.944;2022-10-16T11:53:03;18.90;99.90
14709;DHT22;7445;50.774;4.944;2022-10-16T11:55:46;19.20;99.90
14709;DHT22;7445;50.774;4.944;2022-10-16T11:58:50;19.60;99.90
14709;DHT22;7445;50.774;4.944;2022-10-16T12:02:31;19.90;99.90
14709;DHT22;7445;50.774;4.944;2022-10-16T12:08:15;20.30;99.90
14709;DHT22;7445;50.774;4.944;2022-10-16T12:11:34;20.40;99.90
14709;DHT22;7445;50.774;4.944;2022-10-16T12:16:55;20.50;99.90
14709;DHT22;7445;50.774;4.944;2022-10-16T12:19:22;20.60;99.90
14709;DHT22;7445;50.774;4.944;2022-10-16T12:21:56;20.70;99.90
14709;DHT22;7445;50.774;4.944;2022-10-16T12:24:33;20.90;99.90
14709;DHT22;7445;50.774;4.944;2022-10-16T12:27:00;21.10;99.90
14709;DHT22;7445;50.774;4.944;2022-10-16T12:29:38;21.00;99.90
14709;DHT22;7445;50.774;4.944;2022-10-16T12:32:19;20.80;99.90
14709;DHT22;7445;50.774;4.944;2022-10-16T12:34:51;20.70;99.90
14709;DHT22;7445;50.774;4.944;2022-10-16T12:37:29;20.50;99.90
14709;DHT22;7445;50.774;4.944;2022-10-16T12:39:56;20.20;99.90
14709;DHT22;7445;50.774;4.944;2022-10-16T12:44:52;20.00;99.90
14709;DHT22;7445;50.774;4.944;2022-10-16T12:49:57;19.60;99.90
14709;DHT22;7445;50.774;4.944;2022-10-16T12:52:37;19.50;99.90
14709;DHT22;7445;50.774;4.944;2022-10-16T12:55:12;19.40;99.90
14709;DHT22;7445;50.774;4.944;2022-10-16T13:03:43;19.40;99.90
14709;DHT22;7445;50.774;4.944;2022-10-16T13:06:20;19.40;99.90
14709;DHT22;7445;50.774;4.944;2022-10-16T13:09:07;19.40;99.90
14709;DHT22;7445;50.774;4.944;2022-10-16T13:14:47;19.10;99.90
14709;DHT22;7445;50.774;4.944;2022-10-16T13:17:31;19.00;99.90
14709;DHT22;7445;50.774;4.944;2022-10-16T13:20:25;19.00;99.90
14709;DHT22;7445;50.774;4.944;2022-10-16T13:23:18;19.10;99.90
14709;DHT22;7445;50.774;4.944;2022-10-16T13:26:09;19.10;99.90
14709;DHT22;7445;50.774;4.944;2022-10-16T13:28:39;19.10;99.90
14709;DHT22;7445;50.774;4.944;2022-10-16T13:31:17;19.00;99.90
14709;DHT22;7445;50.774;4.944;2022-10-16T13:33:48;18.80;99.90
14709;DHT22;7445;50.774;4.944;2022-10-16T13:36:47;18.80;99.90
14709;DHT22;7445;50.774;4.944;2022-10-16T13:39:30;18.60;99.90
14709;DHT22;7445;50.774;4.944;2022-10-16T13:42:03;18.50;99.90
14709;DHT22;7445;50.774;4.944;2022-10-16T13:44:48;18.50;99.90
14709;DHT22;7445;50.774;4.944;2022-10-16T13:47:20;18.50;99.90
14709;DHT22;7445;50.774;4.944;2022-10-16T13:49:46;18.70;99.90
14709;DHT22;7445;50.774;4.944;2022-10-16T13:52:18;18.80;99.90
14709;DHT22;7445;50.774;4.944;2022-10-16T13:54:45;18.90;99.90
14709;DHT22;7445;50.774;4.944;2022-10-16T13:57:16;19.10;99.90
14709;DHT22;7445;50.774;4.944;2022-10-16T13:59:42;19.20;99.90
14709;DHT22;7445;50.774;4.944;2022-10-16T14:02:40;19.10;99.90
14709;DHT22;7445;50.774;4.944;2022-10-16T14:05:09;19.00;99.90
14709;DHT22;7445;50.774;4.944;2022-10-16T14:07:37;18.90;99.90
14709;DHT22;7445;50.774;4.944;2022-10-16T14:10:24;18.90;99.90
14709;DHT22;7445;50.774;4.944;2022-10-16T14:13:05;18.90;99.90
14709;DHT22;7445;50.774;4.944;2022-10-16T14:15:33;18.90;99.90
14709;DHT22;7445;50.774;4.944;2022-10-16T14:18:00;18.90;99.90
14709;DHT22;7445;50.774;4.944;2022-10-16T14:20:28;18.80;99.90
14709;DHT22;7445;50.774;4.944;2022-10-16T14:25:44;18.80;99.90
14709;DHT22;7445;50.774;4.944;2022-10-16T14:28:18;18.70;99.90
14709;DHT22;7445;50.774;4.944;2022-10-16T14:33:33;18.70;99.90
14709;DHT22;7445;50.774;4.944;2022-10-16T14:36:04;18.70;99.90
14709;DHT22;7445;50.774;4.944;2022-10-16T14:38:32;18.70;99.90
14709;DHT22;7445;50.774;4.944;2022-10-16T14:40:59;18.70;99.90
14709;DHT22;7445;50.774;4.944;2022-10-16T14:43:40;18.70;99.90
14709;DHT22;7445;50.774;4.944;2022-10-16T14:46:14;18.70;99.90
14709;DHT22;7445;50.774;4.944;2022-10-16T14:48:47;18.70;99.90
14709;DHT22;7445;50.774;4.944;2022-10-16T14:51:20;18.80;99.90
14709;DHT22;7445;50.774;4.944;2022-10-16T14:53:46;18.80;99.90
14709;DHT22;7445;50.774;4.944;2022-10-16T14:56:19;18.80;99.90
14709;DHT22;7445;50.774;4.944;2022-10-16T14:58:45;18.80;99.90
14709;DHT22;7445;50.774;4.944;2022-10-16T15:01:11;18.80;99.90
14709;DHT22;7445;50.774;4.944;2022-10-16T15:03:38;18.70;99.90
14709;DHT22;7445;50.774;4.944;2022-10-16T15:06:04;18.70;99.90
14709;DHT22;7445;50.774;4.944;2022-10-16T15:08:34;18.70;99.90
14709;DHT22;7445;50.774;4.944;2022-10-16T15:11:00;18.70;99.90
14709;DHT22;7445;50.774;4.944;2022-10-16T15:13:26;18.60;99.90
14709;DHT22;7445;50.774;4.944;2022-10-16T15:15:52;18.60;99.90
14709;DHT22;7445;50.774;4.944;2022-10-16T15:18:18;18.60;99.90
14709;DHT22;7445;50.774;4.944;2022-10-16T15:20:50;18.50;99.90
14709;DHT22;7445;50.774;4.944;2022-10-16T15:23:19;18.50;99.90
14709;DHT22;7445;50.774;4.944;2022-10-16T15:25:47;18.50;99.90
14709;DHT22;7445;50.774;4.944;2022-10-16T15:28:14;18.40;99.90
14709;DHT22;7445;50.774;4.944;2022-10-16T15:30:42;18.40;99.90
14709;DHT22;7445;50.774;4.944;2022-10-16T15:33:18;18.40;99.90
14709;DHT22;7445;50.774;4.944;2022-10-16T15:35:49;18.30;99.90
14709;DHT22;7445;50.774;4.944;2022-10-16T15:38:16;18.20;99.90
14709;DHT22;7445;50.774;4.944;2022-10-16T15:40:41;18.20;99.90
14709;DHT22;7445;50.774;4.944;2022-10-16T15:43:08;18.10;99.90
14709;DHT22;7445;50.774;4.944;2022-10-16T15:45:38;18.00;99.90
14709;DHT22;7445;50.774;4.944;2022-10-16T15:48:05;17.90;99.90
14709;DHT22;7445;50.774;4.944;2022-10-16T15:50:33;17.90;99.90
14709;DHT22;7445;50.774;4.944;2022-10-16T15:52:59;17.80;99.90
14709;DHT22;7445;50.774;4.944;2022-10-16T15:55:25;17.80;99.90
14709;DHT22;7445;50.774;4.944;2022-10-16T15:57:52;17.70;99.90
14709;DHT22;7445;50.774;4.944;2022-10-16T16:00:19;17.70;99.90
14709;DHT22;7445;50.774;4.944;2022-10-16T16:02:52;17.60;99.90
14709;DHT22;7445;50.774;4.944;2022-10-16T16:05:18;17.50;99.90
14709;DHT22;7445;50.774;4.944;2022-10-16T16:07:44;17.50;99.90
14709;DHT22;7445;50.774;4.944;2022-10-16T16:10:11;17.50;99.90
14709;DHT22;7445;50.774;4.944;2022-10-16T16:12:37;17.50;99.90
14709;DHT22;7445;50.774;4.944;2022-10-16T16:15:07;17.50;99.90
14709;DHT22;7445;50.774;4.944;2022-10-16T16:17:34;17.50;99.90
14709;DHT22;7445;50.774;4.944;2022-10-16T16:20:00;17.50;99.90
14709;DHT22;7445;50.774;4.944;2022-10-16T16:22:26;17.50;99.90
14709;DHT22;7445;50.774;4.944;2022-10-16T16:24:52;17.40;99.90
14709;DHT22;7445;50.774;4.944;2022-10-16T16:27:18;17.40;99.90
14709;DHT22;7445;50.774;4.944;2022-10-16T16:29:45;17.30;99.90
14709;DHT22;7445;50.774;4.944;2022-10-16T16:32:11;17.20;99.90
14709;DHT22;7445;50.774;4.944;2022-10-16T16:34:36;17.10;99.90
14709;DHT22;7445;50.774;4.944;2022-10-16T16:37:02;17.10;99.90
14709;DHT22;7445;50.774;4.944;2022-10-16T16:39:28;17.10;99.90
14709;DHT22;7445;50.774;4.944;2022-10-16T16:41:56;17.10;99.90
14709;DHT22;7445;50.774;4.944;2022-10-16T16:44:23;17.00;99.90
14709;DHT22;7445;50.774;4.944;2022-10-16T16:46:49;17.10;99.90
14709;DHT22;7445;50.774;4.944;2022-10-16T16:49:15;17.00;99.90
14709;DHT22;7445;50.774;4.944;2022-10-16T16:51:41;17.00;99.90
14709;DHT22;7445;50.774;4.944;2022-10-16T16:54:07;16.90;99.90
14709;DHT22;7445;50.774;4.944;2022-10-16T16:56:33;16.90;99.90
14709;DHT22;7445;50.774;4.944;2022-10-16T16:58:59;16.80;99.90
14709;DHT22;7445;50.774;4.944;2022-10-16T17:01:26;16.80;99.90
14709;DHT22;7445;50.774;4.944;2022-10-16T17:03:54;16.80;99.90
14709;DHT22;7445;50.774;4.944;2022-10-16T17:06:22;16.70;99.90
14709;DHT22;7445;50.774;4.944;2022-10-16T17:08:50;16.80;99.90
14709;DHT22;7445;50.774;4.944;2022-10-16T17:11:18;16.70;99.90
14709;DHT22;7445;50.774;4.944;2022-10-16T17:13:44;16.70;99.90
14709;DHT22;7445;50.774;4.944;2022-10-16T17:16:10;16.80;99.90
14709;DHT22;7445;50.774;4.944;2022-10-16T17:18:36;16.80;99.90
14709;DHT22;7445;50.774;4.944;2022-10-16T17:21:05;16.80;99.90
14709;DHT22;7445;50.774;4.944;2022-10-16T17:23:32;16.80;99.90
14709;DHT22;7445;50.774;4.944;2022-10-16T17:26:03;16.80;99.90
14709;DHT22;7445;50.774;4.944;2022-10-16T17:28:30;16.80;99.90
14709;DHT22;7445;50.774;4.944;2022-10-16T17:30:55;16.70;99.90
14709;DHT22;7445;50.774;4.944;2022-10-16T17:33:21;16.60;99.90
14709;DHT22;7445;50.774;4.944;2022-10-16T17:35:47;16.60;99.90
14709;DHT22;7445;50.774;4.944;2022-10-16T17:38:13;16.50;99.90
14709;DHT22;7445;50.774;4.944;2022-10-16T17:40:40;16.50;99.90
14709;DHT22;7445;50.774;4.944;2022-10-16T17:43:05;16.40;99.90
14709;DHT22;7445;50.774;4.944;2022-10-16T17:45:35;16.30;99.90
14709;DHT22;7445;50.774;4.944;2022-10-16T17:48:00;16.30;99.90
14709;DHT22;7445;50.774;4.944;2022-10-16T17:50:26;16.40;99.90
14709;DHT22;7445;50.774;4.944;2022-10-16T17:52:52;16.30;99.90
14709;DHT22;7445;50.774;4.944;2022-10-16T17:55:17;16.20;99.90
14709;DHT22;7445;50.774;4.944;2022-10-16T17:57:43;16.20;99.90
14709;DHT22;7445;50.774;4.944;2022-10-16T18:00:09;16.20;99.90
14709;DHT22;7445;50.774;4.944;2022-10-16T18:02:35;16.20;99.90
14709;DHT22;7445;50.774;4.944;2022-10-16T18:05:01;16.20;99.90
14709;DHT22;7445;50.774;4.944;2022-10-16T18:07:26;16.20;99.90
14709;DHT22;7445;50.774;4.944;2022-10-16T18:09:52;16.20;99.90
14709;DHT22;7445;50.774;4.944;2022-10-16T18:12:18;16.10;99.90
14709;DHT22;7445;50.774;4.944;2022-10-16T18:14:43;16.10;99.90
14709;DHT22;7445;50.774;4.944;2022-10-16T18:17:09;16.10;99.90
14709;DHT22;7445;50.774;4.944;2022-10-16T18:19:35;16.00;99.90
14709;DHT22;7445;50.774;4.944;2022-10-16T18:22:01;16.00;99.90
14709;DHT22;7445;50.774;4.944;2022-10-16T18:24:26;16.00;99.90
14709;DHT22;7445;50.774;4.944;2022-10-16T18:26:54;15.90;99.90
14709;DHT22;7445;50.774;4.944;2022-10-16T18:29:24;15.90;99.90
14709;DHT22;7445;50.774;4.944;2022-10-16T18:31:50;15.90;99.90
14709;DHT22;7445;50.774;4.944;2022-10-16T18:34:16;15.90;99.90
14709;DHT22;7445;50.774;4.944;2022-10-16T18:36:43;15.90;99.90
14709;DHT22;7445;50.774;4.944;2022-10-16T18:39:10;15.90;99.90
14709;DHT22;7445;50.774;4.944;2022-10-16T18:41:39;16.00;99.90
14709;DHT22;7445;50.774;4.944;2022-10-16T18:44:06;15.90;99.90
14709;DHT22;7445;50.774;4.944;2022-10-16T18:46:31;15.90;99.90
14709;DHT22;7445;50.774;4.944;2022-10-16T18:48:58;15.80;99.90
14709;DHT22;7445;50.774;4.944;2022-10-16T18:51:28;15.80;99.90
14709;DHT22;7445;50.774;4.944;2022-10-16T18:53:57;15.80;99.90
14709;DHT22;7445;50.774;4.944;2022-10-16T18:56:23;15.80;99.90
14709;DHT22;7445;50.774;4.944;2022-10-16T18:58:50;15.80;99.90
14709;DHT22;7445;50.774;4.944;2022-10-16T19:01:22;15.80;99.90
14709;DHT22;7445;50.774;4.944;2022-10-16T19:03:53;15.80;99.90
14709;DHT22;7445;50.774;4.944;2022-10-16T19:06:20;15.80;99.90
14709;DHT22;7445;50.774;4.944;2022-10-16T19:08:46;15.80;99.90
14709;DHT22;7445;50.774;4.944;2022-10-16T19:11:14;15.80;99.90
14709;DHT22;7445;50.774;4.944;2022-10-16T19:13:41;15.80;99.90
14709;DHT22;7445;50.774;4.944;2022-10-16T19:16:13;15.80;99.90
14709;DHT22;7445;50.774;4.944;2022-10-16T19:18:39;15.90;99.90
14709;DHT22;7445;50.774;4.944;2022-10-16T19:21:05;15.80;99.90
14709;DHT22;7445;50.774;4.944;2022-10-16T19:23:32;15.80;99.90
14709;DHT22;7445;50.774;4.944;2022-10-16T19:26:03;15.80;99.90
14709;DHT22;7445;50.774;4.944;2022-10-16T19:28:29;15.70;99.90
14709;DHT22;7445;50.774;4.944;2022-10-16T19:30:55;15.70;99.90
14709;DHT22;7445;50.774;4.944;2022-10-16T19:33:21;15.70;99.90
14709;DHT22;7445;50.774;4.944;2022-10-16T19:35:47;15.70;99.90
14709;DHT22;7445;50.774;4.944;2022-10-16T19:38:13;15.70;99.90
14709;DHT22;7445;50.774;4.944;2022-10-16T19:40:38;15.70;99.90
14709;DHT22;7445;50.774;4.944;2022-10-16T19:43:04;15.70;99.90
14709;DHT22;7445;50.774;4.944;2022-10-16T19:45:29;15.70;99.90
14709;DHT22;7445;50.774;4.944;2022-10-16T19:47:55;15.70;99.90
14709;DHT22;7445;50.774;4.944;2022-10-16T19:50:21;15.70;99.90
14709;DHT22;7445;50.774;4.944;2022-10-16T19:52:46;15.70;99.90
14709;DHT22;7445;50.774;4.944;2022-10-16T19:55:12;15.70;99.90
14709;DHT22;7445;50.774;4.944;2022-10-16T19:57:38;15.70;99.90
14709;DHT22;7445;50.774;4.944;2022-10-16T20:00:06;15.70;99.90
14709;DHT22;7445;50.774;4.944;2022-10-16T20:02:32;15.70;99.90
14709;DHT22;7445;50.774;4.944;2022-10-16T20:04:57;15.60;99.90
14709;DHT22;7445;50.774;4.944;2022-10-16T20:07:23;15.60;99.90
14709;DHT22;7445;50.774;4.944;2022-10-16T20:09:49;15.50;99.90
14709;DHT22;7445;50.774;4.944;2022-10-16T20:12:14;15.40;99.90
14709;DHT22;7445;50.774;4.944;2022-10-16T20:14:41;15.40;99.90
14709;DHT22;7445;50.774;4.944;2022-10-16T20:17:07;15.30;99.90
14709;DHT22;7445;50.774;4.944;2022-10-16T20:19:33;15.30;99.90
14709;DHT22;7445;50.774;4.944;2022-10-16T20:22:00;15.30;99.90
14709;DHT22;7445;50.774;4.944;2022-10-16T20:24:28;15.30;99.90
14709;DHT22;7445;50.774;4.944;2022-10-16T20:26:57;15.20;99.90
14709;DHT22;7445;50.774;4.944;2022-10-16T20:29:24;15.20;99.90
14709;DHT22;7445;50.774;4.944;2022-10-16T20:31:50;15.20;99.90
14709;DHT22;7445;50.774;4.944;2022-10-16T20:34:16;15.10;99.90
14709;DHT22;7445;50.774;4.944;2022-10-16T20:36:41;15.10;99.90
14709;DHT22;7445;50.774;4.944;2022-10-16T20:39:10;15.10;99.90
14709;DHT22;7445;50.774;4.944;2022-10-16T20:41:38;15.00;99.90
14709;DHT22;7445;50.774;4.944;2022-10-16T20:44:05;15.00;99.90
14709;DHT22;7445;50.774;4.944;2022-10-16T20:46:31;15.00;99.90
14709;DHT22;7445;50.774;4.944;2022-10-16T20:48:58;15.00;99.90
14709;DHT22;7445;50.774;4.944;2022-10-16T20:51:29;14.90;99.90
14709;DHT22;7445;50.774;4.944;2022-10-16T20:54:03;14.90;99.90
14709;DHT22;7445;50.774;4.944;2022-10-16T20:56:32;14.80;99.90
14709;DHT22;7445;50.774;4.944;2022-10-16T20:58:59;14.80;99.90
14709;DHT22;7445;50.774;4.944;2022-10-16T21:01:26;14.80;99.90
14709;DHT22;7445;50.774;4.944;2022-10-16T21:03:55;14.80;99.90
14709;DHT22;7445;50.774;4.944;2022-10-16T21:06:22;14.80;99.90
14709;DHT22;7445;50.774;4.944;2022-10-16T21:08:48;14.80;99.90
14709;DHT22;7445;50.774;4.944;2022-10-16T21:11:26;14.80;99.90
14709;DHT22;7445;50.774;4.944;2022-10-16T21:13:53;14.80;99.90
14709;DHT22;7445;50.774;4.944;2022-10-16T21:16:19;14.70;99.90
14709;DHT22;7445;50.774;4.944;2022-10-16T21:18:45;14.70;99.90
14709;DHT22;7445;50.774;4.944;2022-10-16T21:21:22;14.70;99.90
14709;DHT22;7445;50.774;4.944;2022-10-16T21:23:49;14.70;99.90
14709;DHT22;7445;50.774;4.944;2022-10-16T21:26:17;14.80;99.90
14709;DHT22;7445;50.774;4.944;2022-10-16T21:28:43;14.80;99.90
14709;DHT22;7445;50.774;4.944;2022-10-16T21:31:14;14.80;99.90
14709;DHT22;7445;50.774;4.944;2022-10-16T21:33:44;14.80;99.90
14709;DHT22;7445;50.774;4.944;2022-10-16T21:36:21;14.80;99.90
14709;DHT22;7445;50.774;4.944;2022-10-16T21:38:47;14.90;99.90
14709;DHT22;7445;50.774;4.944;2022-10-16T21:41:25;14.90;99.90
14709;DHT22;7445;50.774;4.944;2022-10-16T21:43:51;14.90;99.90
14709;DHT22;7445;50.774;4.944;2022-10-16T21:46:22;14.90;99.90
14709;DHT22;7445;50.774;4.944;2022-10-16T21:48:47;14.80;99.90
14709;DHT22;7445;50.774;4.944;2022-10-16T21:51:16;14.70;99.90
14709;DHT22;7445;50.774;4.944;2022-10-16T21:53:42;14.70;99.90
14709;DHT22;7445;50.774;4.944;2022-10-16T21:56:16;14.70;99.90
14709;DHT22;7445;50.774;4.944;2022-10-16T21:58:43;14.60;99.90
14709;DHT22;7445;50.774;4.944;2022-10-16T22:01:11;14.60;99.90
14709;DHT22;7445;50.774;4.944;2022-10-16T22:03:38;14.50;99.90
14709;DHT22;7445;50.774;4.944;2022-10-16T22:06:06;14.40;99.90
14709;DHT22;7445;50.774;4.944;2022-10-16T22:08:32;14.40;99.90
14709;DHT22;7445;50.774;4.944;2022-10-16T22:11:07;14.30;99.90
14709;DHT22;7445;50.774;4.944;2022-10-16T22:13:33;14.30;99.90
14709;DHT22;7445;50.774;4.944;2022-10-16T22:16:00;14.30;99.90
14709;DHT22;7445;50.774;4.944;2022-10-16T22:18:26;14.30;99.90
14709;DHT22;7445;50.774;4.944;2022-10-16T22:20:52;14.30;99.90
14709;DHT22;7445;50.774;4.944;2022-10-16T22:23:20;14.30;99.90
14709;DHT22;7445;50.774;4.944;2022-10-16T22:25:47;14.30;99.90
14709;DHT22;7445;50.774;4.944;2022-10-16T22:28:13;14.30;99.90
14709;DHT22;7445;50.774;4.944;2022-10-16T22:30:39;14.30;99.90
14709;DHT22;7445;50.774;4.944;2022-10-16T22:33:05;14.30;99.90
14709;DHT22;7445;50.774;4.944;2022-10-16T22:35:36;14.30;99.90
14709;DHT22;7445;50.774;4.944;2022-10-16T22:38:02;14.30;99.90
14709;DHT22;7445;50.774;4.944;2022-10-16T22:40:28;14.20;99.90
14709;DHT22;7445;50.774;4.944;2022-10-16T22:42:53;14.20;99.90
14709;DHT22;7445;50.774;4.944;2022-10-16T22:45:19;14.10;99.90
14709;DHT22;7445;50.774;4.944;2022-10-16T22:47:47;14.10;99.90
14709;DHT22;7445;50.774;4.944;2022-10-16T22:50:16;14.00;99.90
14709;DHT22;7445;50.774;4.944;2022-10-16T22:52:45;14.00;99.90
14709;DHT22;7445;50.774;4.944;2022-10-16T22:55:13;13.90;99.90
14709;DHT22;7445;50.774;4.944;2022-10-16T22:57:44;13.90;99.90
14709;DHT22;7445;50.774;4.944;2022-10-16T23:00:18;13.90;99.90
14709;DHT22;7445;50.774;4.944;2022-10-16T23:02:48;13.80;99.90
14709;DHT22;7445;50.774;4.944;2022-10-16T23:05:14;13.80;99.90
14709;DHT22;7445;50.774;4.944;2022-10-16T23:07:39;13.80;99.90
14709;DHT22;7445;50.774;4.944;2022-10-16T23:10:07;13.80;99.90
14709;DHT22;7445;50.774;4.944;2022-10-16T23:12:34;13.80;99.90
14709;DHT22;7445;50.774;4.944;2022-10-16T23:15:01;13.70;99.90
14709;DHT22;7445;50.774;4.944;2022-10-16T23:17:27;13.70;99.90
14709;DHT22;7445;50.774;4.944;2022-10-16T23:19:52;13.70;99.90
14709;DHT22;7445;50.774;4.944;2022-10-16T23:22:18;13.50;99.90
14709;DHT22;7445;50.774;4.944;2022-10-16T23:24:43;13.50;99.90
14709;DHT22;7445;50.774;4.944;2022-10-16T23:27:12;13.60;99.90
14709;DHT22;7445;50.774;4.944;2022-10-16T23:29:42;13.70;99.90
14709;DHT22;7445;50.774;4.944;2022-10-16T23:32:08;13.80;99.90
14709;DHT22;7445;50.774;4.944;2022-10-16T23:34:33;13.80;99.90
14709;DHT22;7445;50.774;4.944;2022-10-16T23:37:07;13.90;99.90
14709;DHT22;7445;50.774;4.944;2022-10-16T23:39:41;14.00;99.90
14709;DHT22;7445;50.774;4.944;2022-10-16T23:42:07;14.10;99.90
14709;DHT22;7445;50.774;4.944;2022-10-16T23:44:33;14.10;99.90
14709;DHT22;7445;50.774;4.944;2022-10-16T23:47:00;14.10;99.90
14709;DHT22;7445;50.774;4.944;2022-10-16T23:49:26;14.00;99.90
14709;DHT22;7445;50.774;4.944;2022-10-16T23:51:51;14.00;99.90
14709;DHT22;7445;50.774;4.944;2022-10-16T23:54:17;14.00;99.90
14709;DHT22;7445;50.774;4.944;2022-10-16T23:56:43;14.10;99.90
14709;DHT22;7445;50.774;4.944;2022-10-16T23:59:09;14.20;99.90
